Time;durP1;ratioP1;P1;durP2;ratioP2;P2;SDS_P1;SDS_P2;PMS_P1;PMS_P2;Temp;Humidity;BMP_temperature;BMP_pressure;BME280_temperature;BME280_humidity;BME280_pressure;Samples;Min_cycle;Max_cycle;Signal;HPM_P1;HPM_P2
2022/03/21 00:08:46;;;;;;;24.27;8.25;;;4.40;99.90;;;;;;20860179;28;20048;-44
2022/03/21 00:18:48;;;;;;;22.48;9.57;;;4.40;99.90;;;;;;20830688;28;20104;-44
2022/03/21 00:28:49;;;;;;;24.40;8.60;;;4.30;99.90;;;;;;20835334;28;20054;-44
2022/03/21 00:38:51;;;;;;;25.73;10.63;;;4.20;99.90;;;;;;20864769;28;20041;-44
2022/03/21 00:48:52;;;;;;;23.05;8.88;;;4.00;99.90;;;;;;20879482;28;20072;-44
2022/03/21 00:58:53;;;;;;;28.27;9.88;;;3.90;99.90;;;;;;20891948;28;20041;-44
2022/03/21 01:08:54;;;;;;;28.10;9.02;;;3.80;99.90;;;;;;20863755;28;20059;-44
2022/03/21 01:18:55;;;;;;;24.85;8.73;;;3.70;99.90;;;;;;20839819;28;20042;-45
2022/03/21 01:28:59;;;;;;;20.42;8.50;;;3.60;99.90;;;;;;20817030;28;20056;-44
2022/03/21 01:39:00;;;;;;;25.25;9.70;;;3.50;99.90;;;;;;20844833;28;20047;-44
2022/03/21 01:49:04;;;;;;;22.45;9.80;;;3.70;99.90;;;;;;20858375;28;20606;-44
2022/03/21 01:59:06;;;;;;;24.65;9.35;;;3.80;99.90;;;;;;20831212;28;20041;-44
2022/03/21 02:09:07;;;;;;;24.75;8.73;;;3.80;99.90;;;;;;20845876;28;20048;-45
2022/03/21 02:19:16;;;;;;;20.20;9.32;;;3.80;99.90;;;;;;20864383;28;20037;-46
2022/03/21 02:29:20;;;;;;;27.58;10.27;;;3.80;99.90;;;;;;20864299;28;20060;-44
2022/03/21 02:39:22;;;;;;;20.92;9.10;;;3.80;99.90;;;;;;20850415;28;20297;-45
2022/03/21 02:49:23;;;;;;;24.52;9.30;;;3.90;99.90;;;;;;20838415;28;20483;-44
2022/03/21 02:59:25;;;;;;;23.60;10.23;;;4.10;99.90;;;;;;20857741;28;20044;-45
2022/03/21 03:09:27;;;;;;;23.75;9.48;;;4.20;99.90;;;;;;20819404;28;20155;-45
2022/03/21 03:19:29;;;;;;;22.05;8.68;;;4.40;99.90;;;;;;20829870;28;20042;-44
2022/03/21 03:29:30;;;;;;;26.95;10.57;;;4.50;99.90;;;;;;20829404;28;20059;-47
2022/03/21 03:39:31;;;;;;;26.52;9.65;;;4.40;99.90;;;;;;20810997;28;20100;-45
2022/03/21 03:49:32;;;;;;;32.85;10.02;;;4.40;99.90;;;;;;20839045;28;20040;-44
2022/03/21 03:59:33;;;;;;;22.30;9.40;;;4.30;99.90;;;;;;20857489;28;20278;-44
2022/03/21 04:09:34;;;;;;;31.55;10.82;;;4.40;99.90;;;;;;20848343;28;20041;-44
2022/03/21 04:19:35;;;;;;;27.70;10.10;;;4.50;99.90;;;;;;20835862;28;20044;-44
2022/03/21 04:29:37;;;;;;;24.70;9.98;;;4.30;99.90;;;;;;20835916;28;20049;-44
2022/03/21 04:39:38;;;;;;;24.88;8.80;;;4.20;99.90;;;;;;20808276;28;20042;-44
2022/03/21 04:49:39;;;;;;;25.90;8.15;;;4.30;99.90;;;;;;20824367;28;20052;-44
2022/03/21 04:59:40;;;;;;;23.42;9.00;;;4.40;99.90;;;;;;20817864;28;20509;-44
2022/03/21 05:09:41;;;;;;;24.58;8.98;;;4.20;99.90;;;;;;20822503;28;20049;-44
2022/03/21 05:19:43;;;;;;;21.17;9.10;;;4.30;99.90;;;;;;20804191;28;20045;-44
2022/03/21 05:50:24;;;;;;;21.63;8.43;;;4.30;99.90;;;;;;20849943;28;20531;-44
2022/03/21 06:00:26;;;;;;;27.30;8.60;;;4.30;99.90;;;;;;20841737;28;20045;-44
2022/03/21 06:10:29;;;;;;;24.58;9.85;;;4.30;99.90;;;;;;20817931;28;20041;-44
2022/03/21 06:20:36;;;;;;;17.88;7.25;;;4.20;99.90;;;;;;20862729;28;20040;-44
2022/03/21 06:30:37;;;;;;;19.58;7.43;;;4.10;99.90;;;;;;20892164;28;20037;-44
2022/03/21 06:40:40;;;;;;;23.27;8.70;;;4.30;99.90;;;;;;20871021;28;20053;-44
2022/03/21 06:50:41;;;;;;;18.95;7.90;;;4.50;99.90;;;;;;20891570;28;20470;-45
2022/03/21 07:00:45;;;;;;;20.35;8.90;;;4.70;99.90;;;;;;20853056;28;20033;-44
2022/03/21 07:10:49;;;;;;;20.33;8.97;;;4.90;99.90;;;;;;20876948;28;20377;-44
2022/03/21 07:20:50;;;;;;;24.50;9.60;;;5.10;99.90;;;;;;20884201;28;20056;-44
2022/03/21 07:30:51;;;;;;;20.45;7.07;;;5.40;99.90;;;;;;20855298;28;20044;-45
2022/03/21 07:40:52;;;;;;;20.30;8.25;;;5.80;99.90;;;;;;20841903;28;20036;-44
2022/03/21 07:50:53;;;;;;;17.95;6.97;;;6.20;99.90;;;;;;20855561;28;20053;-44
2022/03/21 08:00:56;;;;;;;18.70;8.20;;;6.60;99.90;;;;;;20862887;28;20040;-44
2022/03/21 08:10:58;;;;;;;20.63;9.00;;;6.90;99.90;;;;;;20822679;28;20052;-44
2022/03/21 08:20:59;;;;;;;19.15;7.82;;;7.40;99.90;;;;;;20821529;28;20426;-44
2022/03/21 08:31:02;;;;;;;19.98;7.15;;;7.90;99.90;;;;;;20775033;28;20144;-44
2022/03/21 08:41:03;;;;;;;20.85;7.63;;;8.30;99.90;;;;;;20795737;28;20041;-45
2022/03/21 08:51:04;;;;;;;13.05;5.70;;;8.90;99.90;;;;;;20851151;28;20051;-44
2022/03/21 09:01:05;;;;;;;14.13;6.07;;;9.30;99.90;;;;;;20877889;28;20424;-45
2022/03/21 09:11:06;;;;;;;17.65;6.60;;;9.90;99.90;;;;;;20896900;28;20045;-45
2022/03/21 09:21:07;;;;;;;19.58;5.68;;;10.60;99.90;;;;;;20902309;28;20045;-44
2022/03/21 09:31:08;;;;;;;15.35;6.35;;;11.00;99.90;;;;;;20907206;28;20052;-44
2022/03/21 09:41:14;;;;;;;16.73;6.13;;;11.40;99.90;;;;;;20915609;28;20040;-44
2022/03/21 09:51:29;;;;;;;14.90;5.57;;;11.80;99.60;;;;;;20914046;28;20045;-45
2022/03/21 10:01:32;;;;;;;15.35;5.25;;;12.10;98.60;;;;;;20885282;28;20032;-44
2022/03/21 10:11:34;;;;;;;12.43;4.72;;;12.30;97.10;;;;;;20876689;28;20053;-45
2022/03/21 10:21:35;;;;;;;12.77;5.28;;;12.60;96.60;;;;;;20905112;28;20029;-44
2022/03/21 10:31:48;;;;;;;13.27;5.20;;;13.10;94.00;;;;;;20896067;28;20047;-45
2022/03/21 10:41:59;;;;;;;11.48;3.90;;;13.50;93.30;;;;;;20868266;28;20539;-45
2022/03/21 10:52:02;;;;;;;12.53;4.53;;;13.90;92.50;;;;;;20863497;28;20040;-45
2022/03/21 11:02:17;;;;;;;15.00;4.68;;;14.30;90.80;;;;;;20879044;28;23416;-45
2022/03/21 11:12:18;;;;;;;14.45;5.53;;;14.70;91.20;;;;;;20852951;28;20760;-46
2022/03/21 11:22:19;;;;;;;10.82;4.68;;;15.30;91.00;;;;;;20796005;28;20049;-46
2022/03/21 11:32:30;;;;;;;8.02;2.97;;;15.80;90.00;;;;;;20841864;28;20057;-45
2022/03/21 11:42:33;;;;;;;9.20;3.88;;;16.40;86.90;;;;;;20843474;28;20030;-46
2022/03/21 11:53:07;;;;;;;9.40;4.07;;;16.70;83.90;;;;;;20830929;28;20045;-45
2022/03/21 12:03:24;;;;;;;10.98;4.60;;;16.80;90.10;;;;;;20831250;28;20802;-51
2022/03/21 12:13:26;;;;;;;8.97;4.03;;;17.60;87.90;;;;;;20847167;28;20048;-45
2022/03/21 12:23:28;;;;;;;7.85;3.40;;;18.30;84.90;;;;;;20843131;28;20040;-45
2022/03/21 12:33:29;;;;;;;11.48;5.25;;;18.40;86.10;;;;;;20882861;28;20057;-45
2022/03/21 12:43:47;;;;;;;8.35;4.45;;;18.90;87.50;;;;;;20897568;28;20044;-45
2022/03/21 12:53:48;;;;;;;10.05;3.72;;;18.80;88.70;;;;;;20889491;28;21463;-46
2022/03/21 13:03:57;;;;;;;10.65;4.47;;;18.90;89.00;;;;;;20866834;28;20041;-45
2022/03/21 13:14:03;;;;;;;11.60;4.68;;;18.90;88.50;;;;;;20872771;28;20042;-46
2022/03/21 13:24:05;;;;;;;8.82;4.13;;;19.50;88.60;;;;;;20810640;28;20047;-46
2022/03/21 13:34:10;;;;;;;10.85;4.85;;;19.70;90.30;;;;;;20802741;28;20386;-46
2022/03/21 13:44:12;;;;;;;8.95;4.05;;;20.10;91.90;;;;;;20849428;28;20445;-46
2022/03/21 13:54:14;;;;;;;9.90;4.85;;;20.30;90.40;;;;;;20799831;28;20084;-46
2022/03/21 14:04:20;;;;;;;9.02;4.65;;;21.00;86.90;;;;;;20798516;28;20033;-45
2022/03/21 14:14:21;;;;;;;9.75;4.68;;;20.50;88.80;;;;;;20848279;28;20053;-46
2022/03/21 14:24:22;;;;;;;11.23;4.65;;;20.80;90.20;;;;;;20865027;28;20625;-46
2022/03/21 14:34:23;;;;;;;13.10;4.30;;;20.90;90.00;;;;;;20847994;28;20064;-45
2022/03/21 14:44:25;;;;;;;11.20;5.18;;;19.60;91.10;;;;;;20867747;28;20037;-46
2022/03/21 14:54:26;;;;;;;10.15;4.72;;;19.40;91.40;;;;;;20877215;28;20484;-45
2022/03/21 15:04:27;;;;;;;14.50;5.68;;;19.20;91.10;;;;;;20882347;28;20041;-45
2022/03/21 15:14:28;;;;;;;13.57;4.60;;;18.70;91.40;;;;;;20832607;28;20045;-45
2022/03/21 15:24:29;;;;;;;11.95;4.80;;;18.50;91.60;;;;;;20803000;28;20041;-45
2022/03/21 15:34:31;;;;;;;8.60;4.35;;;18.10;92.50;;;;;;20829785;28;20052;-45
2022/03/21 15:44:32;;;;;;;13.25;5.05;;;17.90;92.50;;;;;;20807604;28;20894;-45
2022/03/21 15:54:33;;;;;;;15.52;5.10;;;17.60;93.70;;;;;;20836071;28;20053;-45
2022/03/21 16:04:35;;;;;;;14.65;5.75;;;17.40;93.20;;;;;;20817306;28;20041;-45
2022/03/21 16:14:51;;;;;;;10.37;4.87;;;17.30;94.30;;;;;;20823056;28;20053;-45
2022/03/21 16:24:54;;;;;;;11.32;4.53;;;16.90;94.80;;;;;;20790141;28;20045;-46
2022/03/21 16:35:15;;;;;;;10.95;4.10;;;16.60;95.60;;;;;;20788673;28;20123;-45
2022/03/21 16:45:17;;;;;;;11.55;4.90;;;16.30;95.90;;;;;;20853708;28;20412;-45
2022/03/21 16:55:38;;;;;;;10.43;4.03;;;16.00;96.50;;;;;;20847569;28;20092;-45
2022/03/21 17:05:59;;;;;;;11.30;4.35;;;15.50;95.20;;;;;;20837454;28;20159;-45
2022/03/21 17:26:13;;;;;;;17.48;4.60;;;14.90;95.00;;;;;;12648716;23;20049;-89
2022/03/21 17:36:14;;;;;;;12.50;4.95;;;14.60;95.20;;;;;;20857609;28;20037;-88
2022/03/21 17:46:15;;;;;;;13.35;5.10;;;14.30;95.70;;;;;;20887319;28;20033;-89
2022/03/21 17:56:17;;;;;;;12.93;4.90;;;14.10;94.50;;;;;;20865430;28;20633;-88
2022/03/21 18:06:18;;;;;;;11.73;4.95;;;13.70;94.90;;;;;;20851994;28;20061;-87
2022/03/21 18:16:21;;;;;;;13.38;5.60;;;13.50;95.30;;;;;;20854962;28;20056;-86
2022/03/21 18:26:22;;;;;;;12.32;5.32;;;13.30;95.70;;;;;;20959581;28;20053;-87
2022/03/21 18:36:24;;;;;;;13.10;4.63;;;13.10;97.60;;;;;;20855017;28;20056;-88
2022/03/21 18:46:27;;;;;;;11.45;4.35;;;12.80;97.20;;;;;;20845503;28;20036;-89
2022/03/21 18:56:28;;;;;;;12.80;4.97;;;12.60;98.50;;;;;;20851663;28;20044;-88
2022/03/21 19:06:29;;;;;;;11.57;5.15;;;12.40;98.80;;;;;;20882066;28;20381;-88
2022/03/21 19:16:31;;;;;;;12.57;5.45;;;12.20;99.90;;;;;;20850705;28;20041;-88
2022/03/21 19:26:32;;;;;;;11.57;4.50;;;12.10;99.90;;;;;;20854818;28;20045;-89
2022/03/21 19:36:33;;;;;;;13.13;5.18;;;11.80;99.90;;;;;;20875552;28;20059;-90
2022/03/21 19:46:34;;;;;;;15.02;5.35;;;11.50;99.90;;;;;;20866872;28;20403;-89
2022/03/21 19:56:37;;;;;;;14.63;5.28;;;11.40;99.90;;;;;;20865924;28;20044;-89
2022/03/21 20:06:38;;;;;;;13.73;6.10;;;11.20;99.90;;;;;;20867687;23;20063;-44
2022/03/21 20:16:39;;;;;;;15.43;6.18;;;10.80;99.90;;;;;;20887274;28;20063;-44
2022/03/21 20:26:41;;;;;;;12.95;5.45;;;10.60;99.90;;;;;;20796396;28;20036;-45
2022/03/21 20:36:42;;;;;;;17.00;5.68;;;10.60;99.90;;;;;;20803780;28;20124;-44
2022/03/21 20:46:43;;;;;;;16.23;5.70;;;10.40;99.90;;;;;;20805257;28;20132;-44
2022/03/21 20:56:45;;;;;;;17.75;5.57;;;10.20;99.90;;;;;;20808040;28;20488;-44
2022/03/21 21:06:47;;;;;;;15.60;6.07;;;10.10;99.90;;;;;;20820787;28;20044;-44
2022/03/21 21:16:49;;;;;;;16.75;6.93;;;10.00;99.90;;;;;;20821821;28;20048;-45
2022/03/21 21:26:51;;;;;;;14.15;5.95;;;10.00;99.90;;;;;;20818941;28;20057;-44
2022/03/21 21:36:53;;;;;;;14.18;5.65;;;9.80;99.90;;;;;;20820320;28;20045;-44
2022/03/21 21:46:54;;;;;;;20.60;6.80;;;9.70;99.90;;;;;;20819662;28;20531;-44
2022/03/21 21:56:55;;;;;;;16.55;6.57;;;9.50;99.90;;;;;;20806480;28;20057;-45
2022/03/21 22:06:58;;;;;;;20.42;7.38;;;9.40;99.90;;;;;;20807369;28;20049;-44
2022/03/21 22:16:59;;;;;;;19.17;6.90;;;9.40;99.90;;;;;;20809798;28;20060;-44
2022/03/21 22:27:01;;;;;;;17.70;6.93;;;9.10;99.90;;;;;;20809173;28;20038;-44
2022/03/21 22:37:03;;;;;;;16.25;6.95;;;9.00;99.90;;;;;;20800485;28;20049;-44
2022/03/21 22:47:14;;;;;;;15.27;5.95;;;8.80;99.90;;;;;;20795921;28;20037;-44
2022/03/21 22:57:17;;;;;;;14.35;6.68;;;8.70;99.90;;;;;;20799969;28;20552;-44
2022/03/21 23:07:19;;;;;;;20.73;6.70;;;8.60;99.90;;;;;;20798967;28;20132;-44
2022/03/21 23:17:20;;;;;;;19.60;8.02;;;8.60;99.90;;;;;;20798304;28;20072;-44
2022/03/21 23:27:21;;;;;;;17.60;6.35;;;8.50;99.90;;;;;;20797387;28;20052;-44
2022/03/21 23:37:22;;;;;;;15.90;7.07;;;8.50;99.90;;;;;;20798501;28;20057;-44
2022/03/21 23:47:23;;;;;;;18.65;7.10;;;8.40;99.90;;;;;;20797774;28;20712;-44
2022/03/21 23:57:24;;;;;;;16.80;7.65;;;8.30;99.90;;;;;;20791568;28;20055;-45
